Terminal Aerodrome Forecast
Issued by NWS Portland, OR

Home | Current Version | Previous Version | Text Only | Print | Product List | Glossary On
Versions: 1 2 3 4 5 6 7 8 9 10 11 12 13 14 15 16 17 18 19 20 21 22 23 24 25 26 27 28 29 30 31 32 33 34 35 36 37 38 39 40 41 42 43 44 45 46 47 48
000
FTUS46 KPQR 181740
TAFEUG
TAF
KEUG 181740Z 1818/1918 17009KT P6SM SCT020 BKN200
     FM182100 19014G23KT P6SM SCT025 BKN250
     FM190700 19013KT P6SM SCT025 BKN050
     FM191100 19011KT 5SM RA OVC030=

USA.gov is the U.S. government's official web portal to all federal, state and local government web resources and services.